Latest Weather Observations for Rabbit Flat

IDD60801

Issued at 5:05 pm CST Wednesday 22 October 2014 (issued every 30 minutes, with the page automatically refreshed every 10 minutes)

About weather observations | Map of weather stations | Latest weather observations for NT | Other Formats
Station Details ID: 015666 Name: RABBIT FLAT Lat: -20.18 Lon: 130.01 Height: 340.0 m
Data from the previous 72 hours. | See also: Recent months at Rabbit Flat
Date/Time
CST
Temp
°C
App
Temp
°C
Dew
Point
Rel
Hum
%
Delta-T
°C
Wind Press
QNH
hPa
Press
MSL
hPa
Rain
since 9 am
mm
Dir
 
Spd
km/h
Gust
km/h
Spd
kts
Gust
kts
22/05:00pm 38.1 31.0 -7.8 5 20.8 E 22 39 12 21 1012.1 - 0.0
22/04:30pm 39.0 33.1 -6.0 5 21.1 E 17 28 9 15 1012.1 - 0.0
22/04:00pm 39.5 32.3 -9.8 4 21.9 ESE 22 39 12 21 1012.2 - 0.0
22/03:30pm 39.0 32.1 -6.0 5 21.1 ESE 22 41 12 22 1012.4 - 0.0
22/03:00pm 39.3 32.6 -7.6 5 21.5 E 20 32 11 17 1012.8 1010.6 0.0
22/02:30pm 38.8 32.5 -5.5 6 20.9 ESE 19 33 10 18 1013.0 - 0.0
22/02:00pm 38.5 32.7 -4.8 6 20.6 ESE 17 32 9 17 1013.4 - 0.0
22/01:30pm 38.9 33.9 -3.9 6 20.7 ENE 13 32 7 17 1013.7 - 0.0
22/01:00pm 38.0 32.2 -4.3 7 20.2 N 17 24 9 13 1014.1 - 0.0
22/12:30pm 38.2 32.7 -2.4 7 20.0 ENE 17 35 9 19 1014.6 - 0.0
22/12:00pm 38.2 33.2 -1.4 8 19.8 E 15 32 8 17 1015.0 1012.8 0.0
22/11:30am 37.7 31.8 -0.9 9 19.4 N 20 32 11 17 1015.5 - 0.0
22/11:00am 36.7 30.8 -1.1 9 18.8 N 20 32 11 17 1016.0 - 0.0
22/10:30am 36.0 30.5 0.7 11 18.0 N 19 28 10 15 1015.9 - 0.0
22/10:00am 35.0 29.6 1.0 11 17.3 N 19 28 10 15 1015.9 - 0.0
22/09:30am 33.6 31.9 1.7 13 16.3 CALM 0 0 0 0 1015.9 - 0.0
22/09:00am 32.2 30.7 3.0 15 15.1 CALM 0 0 0 0 1016.3 1014.2 0.0
22/08:30am 30.4 28.8 2.3 16 14.2 CALM 0 0 0 0 1016.3 - 0.0
22/08:00am 27.3 25.8 3.0 21 12.2 CALM 0 0 0 0 1016.1 - 0.0
22/07:30am 22.8 21.4 3.5 28 9.5 CALM 0 0 0 0 1015.7 - 0.0
22/07:00am 18.6 17.2 3.5 36 7.2 CALM 0 0 0 0 1015.2 - 0.0
22/06:30am 15.3 13.9 3.8 46 5.4 CALM 0 0 0 0 1014.6 - 0.0
22/06:00am 15.3 13.8 2.9 43 5.7 CALM 0 0 0 0 1014.4 1012.1 0.0
22/05:30am 15.7 14.4 4.1 46 5.5 CALM 0 0 0 0 1013.9 - 0.0
22/05:00am 15.4 14.0 3.6 45 5.5 CALM 0 2 0 1 1013.9 - 0.0
22/04:30am 18.2 15.7 3.5 37 7.0 NE 6 9 3 5 1013.8 - 0.0
22/04:00am 16.9 14.8 2.0 36 6.8 ESE 2 15 1 8 1013.8 - 0.0
22/03:30am 17.1 14.3 3.0 39 6.6 E 7 9 4 5 1013.5 - 0.0
22/03:00am 16.9 15.5 3.8 41 6.2 CALM 0 0 0 0 1013.6 1011.4 0.0
22/02:30am 17.4 16.0 3.4 39 6.6 SSW 0 0 0 0 1013.6 - 0.0
22/02:00am 18.1 14.7 2.1 34 7.4 W 9 13 5 7 1013.7 - 0.0
22/01:30am 17.9 14.6 2.4 35 7.2 W 9 13 5 7 1014.1 - 0.0
22/01:00am 19.3 17.1 3.1 34 7.7 WSW 4 9 2 5 1014.6 - 0.0
22/12:30am 19.3 16.3 2.2 32 8.0 WSW 7 11 4 6 1014.8 - 0.0
22/12:00am 19.7 17.0 2.8 32 8.0 W 6 11 3 6 1015.2 1013.1 0.0
 
Date/Time
CST
Temp
°C
App
Temp
°C
Dew
Point
Rel
Hum
%
Delta-T
°C
Wind Press
QNH
hPa
Press
MSL
hPa
Rain
since 9 am
mm
Dir
 
Spd
km/h
Gust
km/h
Spd
kts
Gust
kts
21/11:30pm 21.5 19.6 0.3 24 9.7 CALM 0 7 0 4 1015.6 - 0.0
21/11:00pm 20.6 17.8 1.8 28 8.8 SSE 6 9 3 5 1016.0 - 0.0
21/10:30pm 21.9 19.3 1.1 25 9.7 S 4 11 2 6 1016.3 - 0.0
21/10:00pm 24.6 21.8 3.2 25 10.6 ESE 7 11 4 6 1016.2 - 0.0
21/09:30pm 27.1 23.9 2.9 21 12.1 E 9 13 5 7 1016.1 - 0.0
21/09:00pm 26.9 23.7 1.0 18 12.5 SSE 7 9 4 5 1015.7 1013.6 0.0
21/08:30pm 28.5 25.0 1.1 17 13.4 NE 9 11 5 6 1015.4 - 0.0
21/08:00pm 29.9 26.3 0.4 15 14.4 E 9 13 5 7 1015.1 - 0.0
21/07:30pm 31.6 28.1 1.3 14 15.2 E 9 11 5 6 1014.6 - 0.0
21/07:00pm 33.6 29.6 -1.9 10 17.1 ESE 9 13 5 7 1014.2 - 0.0
21/06:30pm 35.8 31.5 -4.5 7 18.9 SE 9 17 5 9 1013.9 - 0.0
21/06:00pm 37.2 30.7 -8.3 5 20.3 SE 19 30 10 16 1013.6 1011.4 0.0
21/05:30pm 37.4 31.5 -5.9 6 20.1 E 17 26 9 14 1013.2 - 0.0
21/05:00pm 37.9 31.4 -8.0 5 20.7 E 19 26 10 14 1013.1 - 0.0
21/04:30pm 38.2 33.5 -4.7 6 20.4 E 11 26 6 14 1013.1 - 0.0
21/04:00pm 38.2 31.0 -9.8 4 21.1 SE 22 30 12 16 1013.2 - 0.0
21/03:30pm 38.4 32.5 -5.2 6 20.6 ENE 17 32 9 17 1013.2 - 0.0
21/03:00pm 38.3 33.7 -4.3 6 20.4 NE 11 22 6 12 1013.5 1011.3 0.0
21/02:30pm 38.6 32.3 -5.7 6 20.8 ENE 19 37 10 20 1014.0 - 0.0
21/02:00pm 38.1 31.9 -5.2 6 20.4 E 19 35 10 19 1014.5 - 0.0
21/01:30pm 37.7 29.4 -4.8 6 20.1 NE 30 35 16 19 1014.9 - 0.0
21/01:00pm 37.8 31.0 -5.1 6 20.2 NNE 22 33 12 18 1015.4 - 0.0
21/12:30pm 37.2 30.5 -4.3 7 19.7 NE 22 39 12 21 1016.0 - 0.0
21/12:00pm 36.5 30.3 -4.5 7 19.3 E 19 33 10 18 1016.4 1014.2 0.0
21/11:30am 37.1 30.1 -3.5 7 19.5 NE 24 35 13 19 1016.6 - 0.0
21/11:00am 35.5 27.5 -2.3 9 18.3 NE 30 41 16 22 1016.9 - 0.0
21/10:30am 35.5 28.0 -1.3 9 18.1 NNE 28 39 15 21 1017.0 - 0.0
21/10:00am 34.9 26.9 -2.1 9 17.9 NNE 30 43 16 23 1017.0 - 0.0
21/09:54am 34.7 27.1 -2.2 9 17.8 NNE 28 43 15 23 1016.9 - 0.0
21/09:30am 34.5 32.7 1.0 12 17.0 CALM 0 0 0 0 1017.0 - 0.0
21/09:00am 32.5 30.8 1.8 14 15.6 CALM 0 0 0 0 1017.1 1014.9 0.0
21/08:30am 30.8 29.4 3.6 18 14.1 CALM 0 0 0 0 1017.0 - 0.0
21/08:00am 26.3 25.6 6.8 29 10.4 CALM 0 0 0 0 1016.9 - 0.0
21/07:30am 22.0 21.2 6.5 36 8.0 CALM 0 0 0 0 1016.6 - 0.0
21/07:00am 17.5 16.8 6.8 49 5.4 CALM 0 0 0 0 1016.2 - 0.0
21/06:30am 15.3 14.0 6.1 54 4.5 NNW 2 9 1 5 1015.9 - 0.0
21/06:00am 15.1 14.1 5.6 53 4.6 CALM 0 0 0 0 1015.5 1013.2 0.0
21/05:30am 15.9 15.0 6.2 52 4.8 CALM 0 0 0 0 1015.1 - 0.0
21/05:00am 16.8 16.0 6.6 51 5.1 CALM 0 0 0 0 1014.8 - 0.0
21/04:30am 16.6 14.4 6.1 50 5.2 W 7 9 4 5 1014.4 - 0.0
21/04:00am 17.3 15.2 6.6 49 5.4 W 7 9 4 5 1014.3 - 0.0
21/03:30am 17.7 15.6 6.6 48 5.6 W 7 9 4 5 1014.2 - 0.0
21/03:00am 18.2 16.1 6.0 44 6.1 W 6 7 3 4 1014.2 1012.0 0.0
21/02:30am 18.1 15.3 5.3 43 6.3 W 9 11 5 6 1014.3 - 0.0
21/02:00am 18.7 16.9 5.4 41 6.6 SSW 4 9 2 5 1014.5 - 0.0
21/01:30am 20.0 19.2 6.5 41 6.9 CALM 0 0 0 0 1014.8 - 0.0
21/01:00am 20.9 20.0 6.2 38 7.5 CALM 0 2 0 1 1015.1 - 0.0
21/12:30am 22.6 20.4 6.1 34 8.5 ESE 7 13 4 7 1015.3 - 0.0
21/12:00am 24.8 22.2 6.3 30 9.7 ESE 9 13 5 7 1015.5 1013.3 0.0
 
Date/Time
CST
Temp
°C
App
Temp
°C
Dew
Point
Rel
Hum
%
Delta-T
°C
Wind Press
QNH
hPa
Press
MSL
hPa
Rain
since 9 am
mm
Dir
 
Spd
km/h
Gust
km/h
Spd
kts
Gust
kts
20/11:30pm 25.6 22.5 5.6 27 10.4 NE 11 13 6 7 1015.6 - 0.0
20/11:00pm 26.6 22.9 4.6 24 11.3 ENE 13 17 7 9 1015.9 - 0.0
20/10:30pm 28.4 24.5 3.5 20 12.7 ENE 13 20 7 11 1015.9 - 0.0
20/10:00pm 29.4 25.0 2.7 18 13.5 ENE 15 20 8 11 1015.7 - 0.0
20/09:30pm 28.4 24.8 2.8 19 12.9 ENE 11 17 6 9 1015.4 - 0.0
20/09:00pm 28.5 24.6 1.1 17 13.4 E 11 15 6 8 1015.2 1013.0 0.0
20/08:30pm 28.6 24.9 2.5 18 13.1 E 11 13 6 7 1014.9 - 0.0
20/08:00pm 28.2 25.5 5.4 23 12.0 E 9 13 5 7 1014.5 - 0.0
20/07:30pm 30.2 27.9 5.7 21 13.1 E 7 9 4 5 1014.1 - 0.0
20/07:00pm 32.2 29.4 3.4 16 15.0 E 7 11 4 6 1013.6 - 0.0
20/06:30pm 34.6 31.6 1.8 12 16.9 E 7 11 4 6 1013.3 - 0.0
20/06:00pm 36.2 32.4 -1.0 9 18.5 N 9 15 5 8 1012.9 1010.6 0.0
20/05:30pm 36.7 32.9 -0.9 9 18.8 E 9 15 5 8 1012.6 - 0.0
20/05:00pm 37.2 32.2 -0.9 9 19.1 E 15 26 8 14 1012.5 - 0.0
20/04:30pm 37.3 33.8 1.3 10 18.7 ENE 9 15 5 8 1012.5 - 0.0
20/04:00pm 37.2 32.4 -2.4 8 19.4 SE 13 20 7 11 1012.6 - 0.0
20/03:30pm 37.4 32.3 -2.3 8 19.5 NE 15 32 8 17 1012.8 - 0.0
20/03:00pm 37.1 31.8 -3.9 7 19.6 E 15 26 8 14 1013.0 1010.8 0.0
20/02:30pm 37.2 32.0 -2.5 8 19.4 NE 15 30 8 16 1013.5 - 0.0
20/02:00pm 37.7 32.3 -1.4 8 19.5 ENE 17 33 9 18 1013.8 - 0.0
20/01:30pm 37.8 32.4 -1.6 8 19.6 N 17 35 9 19 1014.4 - 0.0
20/01:00pm 36.8 31.8 -1.2 9 18.9 ENE 15 30 8 16 1015.0 - 0.0
20/12:30pm 36.4 30.2 0.0 10 18.4 NE 22 41 12 22 1015.4 - 0.0
20/12:00pm 36.0 29.7 -1.2 9 18.4 NNE 22 33 12 18 1016.0 1013.8 0.0
20/11:30am 35.7 31.4 3.2 13 17.2 NNE 15 30 8 16 1016.5 - 0.0
20/11:00am 35.3 29.8 3.8 14 16.8 NNE 22 33 12 18 1016.9 - 0.0
20/10:30am 34.7 29.3 2.7 13 16.7 NNE 20 30 11 16 1017.1 - 0.0
20/10:00am 32.8 26.9 1.7 14 15.8 NE 22 39 12 21 1017.3 - 0.0
20/09:30am 33.0 29.6 -0.8 11 16.5 NE 7 33 4 18 1017.2 - 0.0
20/09:00am 31.7 30.1 2.2 15 15.0 CALM 0 11 0 6 1017.1 1015.0 0.0
20/08:30am 27.6 26.3 4.2 22 12.0 CALM 0 0 0 0 1017.0 - 0.0
20/08:00am 24.5 22.6 3.0 24 10.6 SW 2 7 1 4 1016.8 - 0.0
20/07:30am 20.1 19.3 6.4 41 7.0 CALM 0 0 0 0 1016.5 - 0.0
20/07:00am 15.9 14.5 3.8 44 5.7 CALM 0 0 0 0 1016.2 - 0.0
20/06:30am 13.4 12.0 3.6 51 4.5 CALM 0 0 0 0 1015.7 - 0.0
20/06:00am 13.6 12.2 3.3 49 4.7 CALM 0 0 0 0 1015.4 1013.2 0.0
20/05:30am 14.2 13.0 4.4 51 4.6 CALM 0 0 0 0 1015.2 - 0.0
20/05:00am 14.9 13.6 4.0 48 5.1 CALM 0 0 0 0 1015.1 - 0.0
20/04:30am 15.4 13.9 3.0 43 5.7 CALM 0 0 0 0 1014.8 - 0.0
20/04:00am 16.6 15.2 3.4 41 6.2 CALM 0 0 0 0 1014.6 - 0.0
20/03:30am 16.3 14.7 2.3 39 6.4 CALM 0 0 0 0 1014.6 - 0.0
20/03:00am 15.8 14.3 3.0 42 5.9 CALM 0 0 0 0 1014.4 1012.2 0.0
20/02:30am 16.3 14.8 2.9 40 6.2 CALM 0 6 0 3 1014.3 - 0.0
20/02:00am 16.6 13.7 2.8 39 6.4 WNW 7 7 4 4 1014.6 - 0.0
20/01:30am 17.0 15.1 3.1 39 6.5 W 2 7 1 4 1014.9 - 0.0
20/01:00am 17.7 16.3 3.3 38 6.8 CALM 0 0 0 0 1015.2 - 0.0
20/12:30am 18.2 16.5 1.9 33 7.5 CALM 0 0 0 0 1015.3 - 0.0
20/12:00am 19.4 16.8 3.0 33 7.8 WSW 6 6 3 3 1015.3 1013.1 0.0
 
Date/Time
CST
Temp
°C
App
Temp
°C
Dew
Point
Rel
Hum
%
Delta-T
°C
Wind Press
QNH
hPa
Press
MSL
hPa
Rain
since 9 am
mm
Dir
 
Spd
km/h
Gust
km/h
Spd
kts
Gust
kts
19/11:30pm 20.2 17.2 0.7 27 8.9 NW 6 9 3 5 1015.4 - 0.0
19/11:00pm 22.8 19.8 4.1 29 9.3 N 9 13 5 7 1015.5 - 0.0
19/10:30pm 23.9 20.8 3.8 27 10.0 E 9 13 5 7 1015.3 - 0.0
19/10:00pm 24.1 20.9 3.2 25 10.3 E 9 11 5 6 1015.3 - 0.0
19/09:30pm 26.2 23.2 2.2 21 11.8 E 7 11 4 6 1014.8 - 0.0
19/09:00pm 25.0 22.0 2.2 22 11.1 ENE 7 11 4 6 1014.6 1012.3 0.0
19/08:30pm 26.9 23.7 2.9 21 12.0 NNE 9 9 5 5 1014.4 - 0.0
19/08:00pm 28.6 25.2 1.8 17 13.3 NE 9 11 5 6 1014.0 - 0.0
19/07:30pm 29.9 26.9 4.2 19 13.4 ENE 9 11 5 6 1013.7 - 0.0
19/07:00pm 32.0 28.3 -0.2 12 15.8 E 9 11 5 6 1013.3 - 0.0
19/06:30pm 34.6 30.4 -0.9 10 17.5 E 11 19 6 10 1013.1 - 0.0
19/06:00pm 35.7 30.6 -5.4 7 19.0 E 13 20 7 11 1012.8 1010.5 0.0
19/05:30pm 36.3 32.5 -3.8 7 19.1 SE 7 17 4 9 1012.6 - 0.0

Other Formats:

Comma delimited format used in spreadsheet applications
http://www.bom.gov.au/fwo/IDD60801/IDD60801.95322.axf

JavaScript Object Notation format (JSON) in row-major order
http://www.bom.gov.au/fwo/IDD60801/IDD60801.95322.json